Time;durP1;ratioP1;P1;durP2;ratioP2;P2;SDS_P1;SDS_P2;PMS_P1;PMS_P2;Temp;Humidity;BMP_temperature;BMP_pressure;BME280_temperature;BME280_humidity;BME280_pressure;Samples;Min_cycle;Max_cycle;Signal;HPM_P1;HPM_P2
2023/12/28 00:00:36;;;;;;;7.80;4.05;;;;;;;8.68;75.06;100766.31;5021058;27;100542;-75
2023/12/28 00:03:04;;;;;;;8.93;3.67;;;;;;;8.80;74.85;100763.31;5021146;27;97129;-75
2023/12/28 00:05:31;;;;;;;11.70;4.30;;;;;;;8.76;75.34;100765.19;5028706;27;96949;-75
2023/12/28 00:07:57;;;;;;;11.60;4.18;;;;;;;8.76;75.37;100761.69;5031182;27;99384;-76
2023/12/28 00:10:24;;;;;;;10.23;3.42;;;;;;;8.79;75.36;100751.09;5027322;27;98756;-75
2023/12/28 00:12:50;;;;;;;9.40;3.47;;;;;;;8.92;74.83;100741.94;5032192;27;96866;-75
2023/12/28 00:15:17;;;;;;;11.05;3.95;;;;;;;8.81;75.02;100722.91;5028451;27;97277;-75
2023/12/28 00:17:43;;;;;;;11.38;4.03;;;;;;;9.01;74.47;100724.97;5023366;27;99577;-74
2023/12/28 00:20:13;;;;;;;9.65;3.53;;;;;;;9.00;74.34;100725.88;5039386;27;97239;-75
2023/12/28 00:22:39;;;;;;;9.85;4.20;;;;;;;8.86;74.73;100713.09;5026809;27;97137;-75
2023/12/28 00:25:06;;;;;;;11.57;3.97;;;;;;;9.00;74.43;100710.91;5032263;27;97338;-76
2023/12/28 00:27:33;;;;;;;9.82;4.10;;;;;;;9.07;74.16;100715.09;5029387;27;99615;-76
2023/12/28 00:30:00;;;;;;;11.40;4.00;;;;;;;9.23;73.72;100712.88;5029787;27;98802;-76
2023/12/28 00:32:26;;;;;;;14.18;3.92;;;;;;;9.16;73.67;100709.56;5015282;27;96749;-77
2023/12/28 00:34:53;;;;;;;14.73;4.93;;;;;;;9.05;74.24;100703.75;5026542;27;96849;-76
2023/12/28 00:37:21;;;;;;;10.80;3.67;;;;;;;9.06;74.08;100705.47;5022194;27;99337;-76
2023/12/28 00:39:49;;;;;;;10.70;3.63;;;;;;;9.00;74.20;100705.66;5028522;27;99104;-75
2023/12/28 00:42:16;;;;;;;8.13;3.75;;;;;;;9.06;74.23;100705.47;5030539;27;96930;-74
2023/12/28 00:44:43;;;;;;;7.88;3.72;;;;;;;9.16;74.22;100692.88;5030482;27;97206;-70
2023/12/28 00:47:09;;;;;;;11.15;3.67;;;;;;;9.24;73.20;100697.94;5025841;27;100906;-70
2023/12/28 00:49:35;;;;;;;11.18;3.53;;;;;;;9.14;73.74;100705.22;5019673;28;99251;-70
2023/12/28 00:52:02;;;;;;;8.60;3.50;;;;;;;9.24;73.86;100700.56;5033370;27;96951;-69
2023/12/28 00:54:29;;;;;;;6.55;3.22;;;;;;;9.39;72.61;100718.53;5030409;27;98393;-70
2023/12/28 00:56:56;;;;;;;7.80;3.65;;;;;;;9.47;72.44;100714.75;5026432;27;99208;-70
2023/12/28 00:59:22;;;;;;;10.48;3.25;;;;;;;9.51;71.92;100705.84;5023504;27;98803;-70
2023/12/28 01:01:48;;;;;;;6.88;3.30;;;;;;;9.42;71.98;100713.16;5024225;27;96750;-69
2023/12/28 01:04:15;;;;;;;11.73;4.15;;;;;;;9.64;71.45;100732.69;5025986;27;97369;-69
2023/12/28 01:06:41;;;;;;;7.93;3.17;;;;;;;9.75;70.90;100717.38;5029516;27;97873;-70
2023/12/28 01:09:07;;;;;;;6.90;2.83;;;;;;;9.58;70.76;100719.69;5030568;27;99188;-69
2023/12/28 01:11:35;;;;;;;11.45;3.03;;;;;;;9.67;70.56;100714.13;5028370;27;96863;-70
2023/12/28 01:14:02;;;;;;;5.68;2.45;;;;;;;9.70;70.90;100710.53;5031566;27;97290;-70
2023/12/28 01:16:29;;;;;;;8.80;3.20;;;;;;;9.67;70.68;100722.03;5028559;27;98946;-70
2023/12/28 01:18:55;;;;;;;5.70;3.25;;;;;;;9.70;70.75;100711.38;5028992;27;99187;-70
2023/12/28 01:21:21;;;;;;;8.48;3.10;;;;;;;9.75;70.01;100709.47;5030686;27;100088;-70
2023/12/28 01:23:48;;;;;;;10.93;3.53;;;;;;;9.84;69.74;100709.16;5031525;27;96940;-70
2023/12/28 01:26:15;;;;;;;10.75;3.22;;;;;;;9.73;69.84;100716.56;5021003;27;99679;-70
2023/12/28 01:28:43;;;;;;;5.45;2.92;;;;;;;9.91;69.13;100702.75;5028231;27;99122;-70
2023/12/28 01:31:09;;;;;;;5.00;2.95;;;;;;;9.93;69.23;100705.34;5026903;27;96867;-69
2023/12/28 01:33:36;;;;;;;6.82;3.13;;;;;;;9.89;69.40;100707.22;5022954;27;96759;-69
2023/12/28 01:36:02;;;;;;;5.82;2.70;;;;;;;9.84;69.33;100705.66;5026888;27;99332;-70
2023/12/28 01:38:29;;;;;;;5.93;2.72;;;;;;;9.88;68.55;100699.34;5029264;27;101259;-70
2023/12/28 01:40:55;;;;;;;7.25;2.42;;;;;;;9.85;68.65;100705.59;5030365;27;97137;-70
2023/12/28 01:43:22;;;;;;;8.90;2.42;;;;;;;9.93;68.72;100692.16;5027332;27;99200;-71
2023/12/28 01:45:49;;;;;;;8.90;3.10;;;;;;;9.81;68.64;100687.28;5028156;27;98908;-70
2023/12/28 01:48:16;;;;;;;8.15;2.45;;;;;;;9.77;68.89;100683.91;5023089;27;101717;-71
2023/12/28 01:50:43;;;;;;;5.90;2.80;;;;;;;9.79;68.84;100667.97;5025323;27;96735;-71
2023/12/28 01:53:09;;;;;;;4.97;2.30;;;;;;;9.62;69.20;100651.88;5022384;27;98198;-71
2023/12/28 01:55:36;;;;;;;7.75;2.95;;;;;;;9.81;68.57;100645.91;5025891;27;99451;-71
2023/12/28 01:58:02;;;;;;;6.35;2.50;;;;;;;9.98;67.43;100643.56;5025290;27;98928;-72
2023/12/28 02:00:31;;;;;;;8.90;2.55;;;;;;;10.03;67.52;100630.22;5026971;27;96873;-72
2023/12/28 02:03:00;;;;;;;5.32;2.00;;;;;;;10.06;66.74;100637.16;5030518;27;97004;-72
2023/12/28 02:05:27;;;;;;;4.00;1.92;;;;;;;9.92;67.36;100627.94;5022970;27;100657;-71
2023/12/28 02:07:53;;;;;;;7.75;2.58;;;;;;;9.96;66.79;100616.38;5023526;27;98848;-72
2023/12/28 02:10:20;;;;;;;3.47;1.73;;;;;;;10.09;66.45;100639.69;5020262;27;98439;-71
2023/12/28 02:12:47;;;;;;;4.15;2.05;;;;;;;10.07;66.06;100652.06;5031146;27;97048;-71
2023/12/28 02:15:14;;;;;;;4.03;1.80;;;;;;;10.02;66.09;100672.50;5020738;27;101637;-70
2023/12/28 02:17:48;;;;;;;3.22;1.63;;;;;;;9.63;66.52;100682.63;5028897;27;98990;-70
2023/12/28 02:20:16;;;;;;;4.72;2.28;;;;;;;9.82;66.29;100676.69;5031067;27;99539;-70
2023/12/28 02:22:43;;;;;;;4.45;1.90;;;;;;;9.84;65.30;100688.06;5033724;27;96783;-70
2023/12/28 02:25:12;;;;;;;9.63;2.00;;;;;;;9.59;66.69;100682.69;5032042;27;97812;-70
2023/12/28 02:27:40;;;;;;;6.80;2.03;;;;;;;9.77;65.92;100686.53;5024607;27;99459;-70
2023/12/28 02:30:09;;;;;;;2.63;1.65;;;;;;;9.85;65.10;100676.56;5024346;27;97159;-70
2023/12/28 02:32:53;;;;;;;3.90;1.73;;;;;;;9.95;64.22;100685.91;5020414;27;97301;-70
2023/12/28 02:35:25;;;;;;;3.05;1.58;;;;;;;10.04;63.92;100681.25;5020531;27;98997;-70
2023/12/28 02:37:54;;;;;;;1.92;1.60;;;;;;;10.02;64.05;100668.09;5025735;27;98797;-70
2023/12/28 02:40:24;;;;;;;3.80;1.38;;;;;;;10.18;62.54;100656.09;5026846;27;96674;-69
2023/12/28 02:42:50;;;;;;;3.38;1.58;;;;;;;10.20;62.01;100661.31;5025391;27;96797;-69
2023/12/28 02:45:18;;;;;;;3.80;2.03;;;;;;;10.45;60.97;100645.44;5028872;27;98847;-69
2023/12/28 02:47:45;;;;;;;1.85;1.35;;;;;;;10.26;60.92;100653.19;5028871;27;98984;-70
2023/12/28 02:50:12;;;;;;;2.53;1.30;;;;;;;10.10;60.78;100668.69;5025965;27;96769;-70
2023/12/28 02:52:38;;;;;;;2.80;1.25;;;;;;;10.15;60.22;100672.03;5032199;27;96885;-70
2023/12/28 02:55:06;;;;;;;1.75;1.30;;;;;;;10.10;60.64;100668.69;5026858;27;99064;-70
2023/12/28 02:57:37;;;;;;;1.40;0.85;;;;;;;10.11;59.38;100662.47;5024432;27;97483;-70
2023/12/28 03:00:05;;;;;;;2.47;1.50;;;;;;;10.11;59.46;100654.53;5022418;27;97200;-70
2023/12/28 03:02:32;;;;;;;2.50;1.23;;;;;;;10.30;58.22;100654.81;5025592;27;97168;-70
2023/12/28 03:04:58;;;;;;;3.47;1.55;;;;;;;10.31;57.52;100659.16;5025384;27;97675;-69
2023/12/28 03:07:24;;;;;;;4.40;1.30;;;;;;;10.60;56.48;100660.75;5019722;27;99183;-69
2023/12/28 03:09:51;;;;;;;3.30;1.35;;;;;;;10.73;55.95;100660.25;5011378;27;97180;-70
2023/12/28 03:12:18;;;;;;;3.10;1.30;;;;;;;10.95;55.24;100651.50;5028648;27;96754;-69
2023/12/28 03:14:45;;;;;;;5.85;1.33;;;;;;;10.81;54.52;100661.75;5022226;27;98284;-69
2023/12/28 03:17:12;;;;;;;2.22;1.40;;;;;;;10.62;55.68;100661.56;5017859;27;99670;-69
2023/12/28 03:19:39;;;;;;;3.88;1.42;;;;;;;10.87;54.64;100651.81;5033913;27;96744;-69
2023/12/28 03:22:05;;;;;;;3.90;1.20;;;;;;;11.05;53.70;100658.16;5030665;27;96856;-71
2023/12/28 03:24:31;;;;;;;2.20;1.30;;;;;;;11.26;53.19;100654.66;5027009;27;98826;-72
2023/12/28 03:26:58;;;;;;;2.53;1.40;;;;;;;11.34;52.89;100657.88;5027615;27;98131;-69
2023/12/28 03:29:25;;;;;;;2.10;1.25;;;;;;;11.34;52.28;100668.47;5025721;27;97150;-69
2023/12/28 03:31:52;;;;;;;2.55;1.30;;;;;;;11.16;52.58;100663.88;5022347;27;96834;-70
2023/12/28 03:34:19;;;;;;;3.08;1.45;;;;;;;11.18;52.80;100654.09;5024558;27;99225;-71
2023/12/28 03:36:45;;;;;;;1.63;1.10;;;;;;;11.04;53.50;100661.72;5027168;27;97681;-72
2023/12/28 03:39:11;;;;;;;4.18;1.10;;;;;;;11.19;53.31;100669.94;5019765;27;97385;-69
2023/12/28 03:41:38;;;;;;;4.47;1.30;;;;;;;11.23;53.76;100665.34;5033101;27;101084;-69
2023/12/28 03:44:04;;;;;;;4.53;1.15;;;;;;;11.43;53.51;100668.06;5024429;27;99663;-70
2023/12/28 03:46:31;;;;;;;1.75;1.10;;;;;;;11.50;53.60;100672.19;5031006;27;98096;-70
2023/12/28 03:48:58;;;;;;;4.88;1.45;;;;;;;11.55;53.63;100672.88;5031908;27;96931;-70
2023/12/28 03:51:25;;;;;;;2.42;1.15;;;;;;;11.35;54.50;100675.47;5029123;27;98171;-70
2023/12/28 03:53:52;;;;;;;3.10;1.00;;;;;;;11.51;55.43;100673.94;5029519;27;99318;-70
2023/12/28 03:56:23;;;;;;;2.13;1.13;;;;;;;11.44;56.04;100675.09;5031595;27;98908;-70
2023/12/28 03:58:49;;;;;;;2.38;1.35;;;;;;;10.88;57.89;100668.53;5025965;27;97160;-70
2023/12/28 04:01:17;;;;;;;1.52;1.23;;;;;;;10.87;58.80;100666.78;5025637;27;99426;-70
2023/12/28 04:03:43;;;;;;;2.78;1.13;;;;;;;11.00;58.66;100668.06;5026225;27;99148;-70
2023/12/28 04:06:12;;;;;;;2.53;1.10;;;;;;;10.96;58.63;100672.56;5025195;27;101340;-70
2023/12/28 04:08:39;;;;;;;2.75;1.05;;;;;;;10.69;60.24;100661.28;5030426;27;96861;-69
2023/12/28 04:11:05;;;;;;;2.25;1.10;;;;;;;11.21;58.63;100671.66;5028167;27;96910;-71
2023/12/28 04:13:32;;;;;;;1.00;0.80;;;;;;;11.04;58.89;100670.50;5032376;27;98501;-71
2023/12/28 04:15:58;;;;;;;1.40;0.80;;;;;;;10.96;58.88;100666.47;5031773;27;97576;-71
2023/12/28 04:18:25;;;;;;;1.50;1.00;;;;;;;11.09;58.56;100673.00;5031217;27;97214;-70
2023/12/28 04:20:51;;;;;;;1.42;0.90;;;;;;;11.06;58.13;100683.69;5030940;27;97377;-70
2023/12/28 04:23:19;;;;;;;1.73;1.30;;;;;;;11.25;57.41;100692.63;5023206;27;99164;-69
2023/12/28 04:25:45;;;;;;;2.60;1.10;;;;;;;11.01;57.53;100688.28;5013048;27;99438;-68
2023/12/28 04:28:12;;;;;;;2.40;1.00;;;;;;;11.07;57.43;100696.84;5023037;27;96736;-71
2023/12/28 04:30:38;;;;;;;1.73;1.05;;;;;;;11.13;57.22;100686.03;5028471;27;97204;-71
2023/12/28 04:33:05;;;;;;;2.03;1.17;;;;;;;11.15;57.22;100691.28;5031255;27;99009;-71
2023/12/28 04:35:32;;;;;;;2.03;1.08;;;;;;;11.35;56.26;100691.34;5028959;27;100444;-71
2023/12/28 04:37:58;;;;;;;3.42;0.98;;;;;;;11.58;55.55;100695.72;5021694;27;96860;-71
2023/12/28 04:40:26;;;;;;;3.15;1.60;;;;;;;11.75;54.79;100695.91;5029496;27;96812;-71
2023/12/28 04:42:52;;;;;;;2.65;1.05;;;;;;;11.71;54.69;100688.13;5032855;27;98904;-71
2023/12/28 04:45:19;;;;;;;4.40;1.20;;;;;;;11.69;54.13;100679.38;5026917;27;98818;-71
2023/12/28 04:47:45;;;;;;;3.70;1.13;;;;;;;11.50;54.28;100676.63;5035165;27;97072;-72
2023/12/28 04:50:12;;;;;;;4.30;1.23;;;;;;;11.56;54.74;100679.88;5037415;27;97244;-71
2023/12/28 04:52:40;;;;;;;2.85;1.10;;;;;;;11.40;54.65;100678.81;5025153;27;99100;-72
2023/12/28 04:55:07;;;;;;;3.40;1.20;;;;;;;11.35;55.01;100685.19;5039032;27;100695;-71
2023/12/28 04:57:35;;;;;;;4.30;1.25;;;;;;;11.42;54.92;100682.22;5018628;27;99589;-70
2023/12/28 05:00:03;;;;;;;5.28;2.42;;;;;;;11.56;54.36;100690.47;5019323;27;96872;-70
2023/12/28 05:02:29;;;;;;;3.00;1.00;;;;;;;11.36;55.00;100693.06;5034202;27;98242;-71
2023/12/28 05:04:56;;;;;;;1.83;1.00;;;;;;;11.20;55.72;100697.22;5030345;27;99193;-71
2023/12/28 05:07:22;;;;;;;3.80;1.35;;;;;;;11.28;55.77;100705.75;5031481;27;96690;-71
2023/12/28 05:09:48;;;;;;;1.77;1.02;;;;;;;11.35;55.62;100704.59;5026915;27;97689;-70
2023/12/28 05:12:15;;;;;;;2.78;1.38;;;;;;;11.56;55.45;100703.72;5025296;27;101468;-70
2023/12/28 05:14:43;;;;;;;1.48;1.00;;;;;;;11.34;55.74;100718.72;5030065;27;99237;-70
2023/12/28 05:17:09;;;;;;;1.20;1.00;;;;;;;11.33;55.79;100722.28;5029755;27;97099;-71
2023/12/28 05:19:35;;;;;;;3.05;1.10;;;;;;;11.24;56.47;100722.63;5029305;27;101276;-70
2023/12/28 05:22:03;;;;;;;1.58;1.10;;;;;;;11.36;55.80;100716.84;5031997;27;99593;-75
2023/12/28 05:24:30;;;;;;;1.73;0.80;;;;;;;11.35;56.06;100706.38;5030515;27;99646;-76
2023/12/28 05:26:57;;;;;;;2.42;1.15;;;;;;;11.29;56.10;100725.13;5026780;27;97154;-76
2023/12/28 05:29:23;;;;;;;2.35;1.05;;;;;;;11.10;56.60;100717.00;5029962;27;97219;-76
2023/12/28 05:31:51;;;;;;;4.70;1.10;;;;;;;10.97;57.79;100716.59;5037042;27;99018;-77
2023/12/28 05:34:17;;;;;;;1.10;1.00;;;;;;;11.18;57.81;100712.28;5027297;27;99026;-73
2023/12/28 05:36:45;;;;;;;3.35;1.13;;;;;;;10.94;58.37;100726.44;5036530;27;96899;-74
2023/12/28 05:39:13;;;;;;;1.98;1.02;;;;;;;10.95;58.99;100738.75;5030226;27;97440;-74
2023/12/28 05:41:39;;;;;;;4.78;1.15;;;;;;;11.03;59.44;100737.53;5032806;27;99998;-75
2023/12/28 05:44:06;;;;;;;2.10;1.07;;;;;;;11.26;58.65;100751.69;5024600;27;99459;-74
2023/12/28 05:46:32;;;;;;;3.55;1.13;;;;;;;11.34;58.72;100746.97;5022674;27;97406;-75
2023/12/28 05:49:00;;;;;;;3.40;1.30;;;;;;;11.15;59.44;100757.38;5028811;27;96735;-71
2023/12/28 05:51:26;;;;;;;1.60;1.00;;;;;;;10.87;60.66;100759.31;5020270;27;99569;-71
2023/12/28 05:53:52;;;;;;;3.00;1.15;;;;;;;10.86;61.38;100760.22;5025848;27;101527;-71
2023/12/28 05:56:19;;;;;;;1.23;0.93;;;;;;;10.83;61.73;100770.94;5026313;27;98499;-71
2023/12/28 05:58:45;;;;;;;2.00;1.23;;;;;;;11.10;61.01;100776.03;5031568;27;96889;-71
2023/12/28 06:01:12;;;;;;;3.47;1.20;;;;;;;11.10;61.30;100781.34;5034379;27;99426;-68
2023/12/28 06:03:38;;;;;;;2.80;1.27;;;;;;;11.00;62.42;100789.69;5026285;27;101384;-69
2023/12/28 06:06:06;;;;;;;2.78;1.00;;;;;;;11.19;62.31;100786.28;5025245;27;97200;-69
2023/12/28 06:08:32;;;;;;;3.17;1.00;;;;;;;11.19;62.84;100781.00;5025748;27;97160;-69
2023/12/28 06:10:59;;;;;;;1.88;0.98;;;;;;;11.38;62.23;100782.94;5029448;27;99030;-69
2023/12/28 06:13:26;;;;;;;1.48;0.98;;;;;;;11.36;62.56;100780.34;5021545;27;98797;-69
2023/12/28 06:15:52;;;;;;;1.60;0.98;;;;;;;11.01;64.60;100776.41;5026969;27;97034;-69
2023/12/28 06:18:18;;;;;;;2.70;1.08;;;;;;;11.01;65.26;100788.75;5028365;27;96842;-70
2023/12/28 06:20:45;;;;;;;1.98;0.80;;;;;;;11.25;64.85;100786.97;5021976;27;98858;-70
2023/12/28 06:23:12;;;;;;;2.38;1.00;;;;;;;11.46;64.36;100783.53;5029344;27;99887;-70
2023/12/28 06:25:39;;;;;;;1.83;0.90;;;;;;;11.37;64.72;100791.81;5026647;27;97158;-69
2023/12/28 06:28:06;;;;;;;1.67;1.35;;;;;;;11.37;65.19;100794.44;5026433;27;96854;-69
2023/12/28 06:30:32;;;;;;;3.63;1.02;;;;;;;11.52;64.95;100778.84;5027215;27;99647;-70
2023/12/28 06:32:58;;;;;;;3.15;1.20;;;;;;;11.53;65.00;100788.53;5028790;27;100605;-71
2023/12/28 06:35:25;;;;;;;2.83;0.88;;;;;;;11.46;65.19;100779.09;5024255;27;97309;-70
2023/12/28 06:37:51;;;;;;;2.53;0.93;;;;;;;11.65;64.92;100779.25;5020705;27;96913;-70
2023/12/28 06:40:19;;;;;;;3.08;1.48;;;;;;;11.63;64.92;100778.44;5027162;27;98928;-71
2023/12/28 06:42:45;;;;;;;2.20;0.93;;;;;;;11.41;65.89;100777.56;5031984;27;100485;-71
2023/12/28 06:45:12;;;;;;;5.28;1.48;;;;;;;11.81;64.94;100779.53;5027021;27;97721;-70
2023/12/28 06:47:38;;;;;;;3.10;1.30;;;;;;;11.88;64.21;100783.66;5025221;27;97408;-69
2023/12/28 06:50:06;;;;;;;3.22;0.93;;;;;;;11.66;65.32;100786.25;5030008;27;99745;-69
2023/12/28 06:52:33;;;;;;;5.00;1.15;;;;;;;11.67;65.46;100779.19;5020454;27;101219;-69
2023/12/28 06:54:59;;;;;;;2.28;0.82;;;;;;;11.64;65.38;100788.09;5027552;27;97589;-69
2023/12/28 06:57:27;;;;;;;2.22;1.02;;;;;;;11.39;66.33;100782.03;5027943;27;97180;-69
2023/12/28 06:59:54;;;;;;;3.30;1.00;;;;;;;11.52;66.50;100783.28;5019202;27;100346;-71
2023/12/28 07:02:20;;;;;;;4.47;1.33;;;;;;;11.33;67.04;100788.44;5032994;27;101193;-70
2023/12/28 07:04:47;;;;;;;2.50;1.20;;;;;;;11.33;67.34;100783.13;5025110;27;97024;-69
2023/12/28 07:07:13;;;;;;;1.33;0.90;;;;;;;11.28;67.61;100800.09;5029579;27;96904;-69
2023/12/28 07:09:39;;;;;;;1.95;1.05;;;;;;;11.02;69.01;100788.72;5027786;27;99482;-74
2023/12/28 07:12:07;;;;;;;2.00;1.20;;;;;;;11.33;68.31;100795.50;5034681;27;99198;-76
2023/12/28 07:14:36;;;;;;;1.73;1.05;;;;;;;11.18;68.51;100811.00;5032094;27;96810;-75
2023/12/28 07:17:02;;;;;;;2.95;1.23;;;;;;;11.21;68.69;100810.06;5022830;27;96754;-75
2023/12/28 07:19:29;;;;;;;1.40;1.02;;;;;;;11.33;68.39;100825.47;5026122;27;97881;-75
2023/12/28 07:21:55;;;;;;;3.15;1.30;;;;;;;11.34;68.48;100816.63;5022988;27;99167;-75
2023/12/28 07:24:21;;;;;;;2.45;1.30;;;;;;;11.22;69.02;100822.34;5027408;27;96917;-74
2023/12/28 07:26:48;;;;;;;4.00;1.10;;;;;;;11.36;68.67;100820.03;5022597;27;96775;-70
2023/12/28 07:29:14;;;;;;;2.75;1.27;;;;;;;11.44;68.18;100815.31;5019620;27;99239;-71
2023/12/28 07:31:42;;;;;;;3.17;1.08;;;;;;;11.38;68.88;100820.84;5031426;27;98895;-70
2023/12/28 07:34:08;;;;;;;1.95;1.35;;;;;;;11.48;68.27;100830.19;5024461;27;96705;-70
2023/12/28 07:36:35;;;;;;;1.10;1.00;;;;;;;11.15;69.70;100821.72;5037089;27;97064;-70
2023/12/28 07:39:01;;;;;;;3.33;1.10;;;;;;;11.31;69.52;100822.00;5028748;27;102491;-71
2023/12/28 07:41:28;;;;;;;3.80;1.42;;;;;;;11.26;69.68;100823.09;5028471;27;98850;-70
2023/12/28 07:43:54;;;;;;;1.30;0.75;;;;;;;11.09;70.40;100821.09;5032110;27;97276;-72
2023/12/28 07:46:20;;;;;;;3.22;1.40;;;;;;;11.08;70.91;100836.09;5020119;27;96896;-71
2023/12/28 07:48:48;;;;;;;3.13;1.23;;;;;;;11.10;70.49;100836.00;5027767;27;99140;-71
2023/12/28 07:51:15;;;;;;;1.45;0.98;;;;;;;10.99;71.55;100840.81;5023652;27;102135;-71
2023/12/28 07:53:41;;;;;;;2.90;0.98;;;;;;;11.09;71.02;100850.19;5027649;27;96678;-71
2023/12/28 07:56:08;;;;;;;2.45;1.30;;;;;;;11.06;71.63;100851.13;5023720;27;96784;-71
2023/12/28 07:58:37;;;;;;;3.83;1.10;;;;;;;11.01;71.77;100861.03;5012039;28;97799;-72
2023/12/28 08:01:03;;;;;;;3.05;1.27;;;;;;;11.29;70.63;100855.56;5013060;27;99131;-71
2023/12/28 08:03:30;;;;;;;4.68;1.70;;;;;;;11.31;70.59;100853.75;5017261;27;99380;-72
2023/12/28 08:05:58;;;;;;;1.80;1.25;;;;;;;11.31;70.55;100864.31;5012757;27;97614;-71
2023/12/28 08:08:25;;;;;;;3.15;1.30;;;;;;;11.24;70.96;100860.19;5014800;27;98860;-72
2023/12/28 08:10:51;;;;;;;3.17;1.02;;;;;;;11.32;70.69;100871.34;5017278;27;100249;-71
2023/12/28 08:13:18;;;;;;;2.55;1.38;;;;;;;11.28;70.98;100877.69;5025872;27;96902;-70
2023/12/28 08:15:46;;;;;;;2.70;1.20;;;;;;;11.39;70.48;100872.00;5028172;27;97367;-73
2023/12/28 08:18:13;;;;;;;4.78;1.40;;;;;;;11.54;69.65;100874.06;5024353;27;99953;-72
2023/12/28 08:20:39;;;;;;;3.08;1.23;;;;;;;11.56;70.02;100886.31;5023171;27;98093;-70
2023/12/28 08:23:07;;;;;;;4.10;1.50;;;;;;;11.27;71.00;100885.66;5029364;27;97146;-70
2023/12/28 08:25:33;;;;;;;4.85;1.50;;;;;;;11.46;70.49;100877.00;5026346;27;96908;-70
2023/12/28 08:28:00;;;;;;;1.58;1.10;;;;;;;11.46;69.53;100884.06;5029412;27;99033;-71
2023/12/28 08:30:27;;;;;;;3.60;1.30;;;;;;;11.48;69.19;100877.81;5027749;27;98833;-70
2023/12/28 08:32:54;;;;;;;3.28;1.02;;;;;;;11.34;70.10;100877.47;5031144;27;97865;-71
2023/12/28 08:35:20;;;;;;;2.72;1.33;;;;;;;11.65;68.82;100871.88;5023929;27;98708;-71
2023/12/28 08:37:47;;;;;;;2.78;1.45;;;;;;;11.50;69.04;100878.59;5033411;27;98911;-72
2023/12/28 08:40:15;;;;;;;2.95;1.50;;;;;;;11.63;68.49;100876.34;5030268;27;97396;-71
2023/12/28 08:42:41;;;;;;;6.03;1.77;;;;;;;11.96;67.01;100879.53;5026714;27;97085;-70
2023/12/28 08:45:08;;;;;;;58.55;4.20;;;;;;;12.06;66.37;100880.06;5020547;27;97215;-70
2023/12/28 08:47:35;;;;;;;12.00;1.63;;;;;;;11.63;67.38;100881.66;5024534;27;99396;-70
2023/12/28 08:50:01;;;;;;;1.92;1.23;;;;;;;11.66;67.54;100884.19;5025076;27;101742;-71
2023/12/28 08:52:27;;;;;;;1.65;1.13;;;;;;;11.57;68.09;100880.09;5022390;27;97230;-71
2023/12/28 08:54:55;;;;;;;3.95;1.60;;;;;;;12.20;65.81;100883.03;5020101;27;96881;-70
2023/12/28 08:57:22;;;;;;;4.38;1.33;;;;;;;12.47;64.36;100889.81;5026116;27;98670;-70
2023/12/28 08:59:49;;;;;;;3.45;1.50;;;;;;;11.64;67.02;100880.75;5024791;27;99498;-70
2023/12/28 09:02:15;;;;;;;2.22;1.10;;;;;;;11.77;66.66;100889.09;5018217;27;100118;-70
2023/12/28 09:04:41;;;;;;;3.20;1.38;;;;;;;11.91;66.48;100902.69;5021404;27;97691;-70
2023/12/28 09:07:09;;;;;;;3.28;1.20;;;;;;;12.04;66.24;100896.00;5028298;27;99180;-70
2023/12/28 09:09:35;;;;;;;3.53;1.50;;;;;;;11.84;66.88;100896.75;5022630;27;97529;-71
2023/12/28 09:12:02;;;;;;;2.35;1.55;;;;;;;11.90;66.20;100900.97;5029312;27;96820;-70
2023/12/28 09:14:29;;;;;;;3.42;1.40;;;;;;;11.68;67.43;100900.91;5027832;27;97252;-71
2023/12/28 09:16:57;;;;;;;2.83;1.50;;;;;;;11.67;67.50;100908.88;5026151;27;98981;-70
2023/12/28 09:19:23;;;;;;;2.47;1.50;;;;;;;11.84;66.95;100910.00;5024128;27;98062;-70
2023/12/28 09:21:49;;;;;;;2.75;1.45;;;;;;;11.83;67.18;100907.41;5018348;27;97191;-71
2023/12/28 09:24:18;;;;;;;1.98;1.38;;;;;;;11.98;66.98;100901.53;5016329;27;97636;-70
2023/12/28 09:26:44;;;;;;;4.63;1.50;;;;;;;11.66;67.70;100896.56;5025540;27;99219;-70
2023/12/28 09:29:11;;;;;;;1.80;1.40;;;;;;;11.68;67.83;100900.03;5023867;27;101148;-70
2023/12/28 09:31:40;;;;;;;1.73;1.30;;;;;;;11.98;67.16;100898.88;5028423;27;97256;-70
2023/12/28 09:34:06;;;;;;;3.83;1.60;;;;;;;12.06;66.48;100904.75;5029183;27;100304;-70
2023/12/28 09:36:33;;;;;;;3.85;1.40;;;;;;;12.06;66.30;100911.84;5028902;27;98919;-70
2023/12/28 09:38:59;;;;;;;2.20;1.33;;;;;;;12.16;65.65;100889.34;5022562;27;98860;-70
2023/12/28 09:41:27;;;;;;;3.58;1.30;;;;;;;12.15;65.88;100888.47;5024403;27;96751;-70
2023/12/28 09:43:55;;;;;;;2.78;1.25;;;;;;;12.21;65.12;100893.53;5031858;27;97223;-70
2023/12/28 09:46:22;;;;;;;3.00;1.30;;;;;;;12.30;65.07;100882.56;5024142;27;98770;-70
2023/12/28 09:48:50;;;;;;;3.40;1.27;;;;;;;11.90;66.61;100891.22;5030163;27;97655;-70
2023/12/28 09:51:17;;;;;;;3.33;1.70;;;;;;;11.85;67.34;100893.19;5022555;27;97283;-70
2023/12/28 09:53:45;;;;;;;4.68;1.60;;;;;;;12.15;65.92;100887.63;5023439;27;97498;-70
2023/12/28 09:56:14;;;;;;;7.72;1.83;;;;;;;12.36;65.09;100879.69;5027644;27;97882;-70
2023/12/28 09:58:41;;;;;;;2.53;1.80;;;;;;;12.19;65.78;100886.59;5022293;27;97991;-70
2023/12/28 10:01:10;;;;;;;7.28;1.50;;;;;;;12.01;65.97;100892.63;5019015;27;96927;-69
2023/12/28 10:03:37;;;;;;;2.35;1.48;;;;;;;11.63;68.14;100880.78;5025545;27;96798;-70
2023/12/28 10:06:05;;;;;;;3.58;1.70;;;;;;;12.12;66.57;100879.81;5023610;27;99059;-72
2023/12/28 10:08:31;;;;;;;5.05;1.70;;;;;;;12.01;66.72;100874.94;5029913;27;98937;-72
2023/12/28 10:10:58;;;;;;;5.03;1.58;;;;;;;11.73;68.11;100882.19;5025505;27;98076;-72
2023/12/28 10:13:25;;;;;;;2.53;1.80;;;;;;;11.63;68.47;100875.50;5028762;27;97852;-72
2023/12/28 10:15:52;;;;;;;4.57;1.67;;;;;;;12.02;67.13;100871.34;5026758;27;99201;-72
2023/12/28 10:18:19;;;;;;;2.10;1.30;;;;;;;12.23;66.44;100875.78;5027281;27;101255;-72
2023/12/28 10:20:50;;;;;;;3.08;1.40;;;;;;;12.06;66.59;100878.25;5025827;27;97349;-72
2023/12/28 10:23:18;;;;;;;3.45;1.85;;;;;;;11.97;67.13;100875.97;5025358;27;98042;-72
2023/12/28 10:25:45;;;;;;;2.78;1.52;;;;;;;11.60;68.11;100865.91;5028091;27;99886;-72
2023/12/28 10:28:12;;;;;;;3.20;1.63;;;;;;;11.86;68.34;100873.75;5022547;27;101102;-72
2023/12/28 10:30:39;;;;;;;4.05;2.00;;;;;;;11.70;68.61;100887.56;5026032;27;97614;-72
2023/12/28 10:33:06;;;;;;;3.85;1.48;;;;;;;12.12;67.32;100874.50;5026744;27;97058;-72
2023/12/28 10:35:33;;;;;;;3.28;1.77;;;;;;;12.30;66.77;100879.06;5022072;27;99416;-72
2023/12/28 10:38:03;;;;;;;2.58;1.40;;;;;;;12.33;66.00;100874.53;5024784;27;98950;-72
2023/12/28 10:40:32;;;;;;;3.38;1.60;;;;;;;12.18;66.97;100867.19;5027039;27;97444;-72
2023/12/28 10:43:00;;;;;;;2.10;1.70;;;;;;;12.58;65.32;100873.50;5027177;27;97774;-72
2023/12/28 10:45:29;;;;;;;4.85;1.65;;;;;;;12.21;65.99;100868.81;5026908;27;99027;-72
2023/12/28 10:48:05;;;;;;;4.22;1.80;;;;;;;12.52;65.72;100874.63;5023775;27;98743;-71
2023/12/28 10:50:35;;;;;;;;;;;;;;;12.75;64.67;100863.91;5021569;27;98918;-71
2023/12/28 10:53:12;;;;;;;3.63;1.65;;;;;;;12.02;66.87;100871.34;5022026;27;97278;-72
2023/12/28 10:55:49;;;;;;;3.08;1.70;;;;;;;12.11;67.41;100878.94;5025346;27;101044;-71
2023/12/28 10:58:20;;;;;;;5.47;1.63;;;;;;;12.36;66.61;100871.72;5021443;27;98985;-72
2023/12/28 11:00:53;;;;;;;4.25;1.80;;;;;;;12.48;65.33;100873.00;5020512;27;99398;-70
2023/12/28 11:03:24;;;;;;;2.10;1.50;;;;;;;12.65;65.35;100861.72;5027724;27;97327;-71
2023/12/28 11:05:52;;;;;;;3.17;1.48;;;;;;;12.46;65.66;100869.56;5025260;27;99368;-71
2023/12/28 11:08:20;;;;;;;3.40;1.50;;;;;;;12.11;66.83;100881.59;5025368;27;98955;-70
2023/12/28 11:10:51;;;;;;;2.97;1.50;;;;;;;11.93;67.71;100879.66;5026549;27;97255;-71
2023/12/28 11:13:19;;;;;;;1.85;1.38;;;;;;;12.56;66.00;100880.66;5027068;27;97194;-71
2023/12/28 11:15:47;;;;;;;2.55;1.38;;;;;;;12.67;65.19;100878.41;5027178;27;98997;-72
2023/12/28 11:18:15;;;;;;;2.85;1.83;;;;;;;12.77;65.01;100871.81;5025921;27;98860;-71
2023/12/28 11:20:42;;;;;;;2.08;1.40;;;;;;;13.07;63.04;100875.78;5020503;27;97911;-70
2023/12/28 11:23:09;;;;;;;3.35;1.60;;;;;;;12.92;63.36;100865.84;5025460;27;97131;-70
2023/12/28 11:25:35;;;;;;;2.13;1.50;;;;;;;12.89;63.29;100857.16;5027921;27;99685;-71